ケープタウン の空港の天気 - METARとTAF

ケープタウン国際空港 ( FACT / CPT ) - 南アフリカ ケープタウン
飛行場実況気象(Metar)
観測時間04/21 18:00 SAST (04/21 16:00 UTC)
風向・風速南南東 10m/s
視程10km以上
天気現象
少しの雲 雲底高度 910m
気温20℃
湿度56%
気圧1020hPa
METARFACT 211600Z 15019KT 9999 FEW030 20/11 Q1020 NOSIG
過去の天気等 Google飛行場航空写真 Wunderground天気予報

過去48時間のMETAR

飛行場予報(TAF)
発表時間: 4/21 12:00 SAST (4/21 10:00 UTC)
予報対象時間: 21日14時 SAST ~ 22日20時 SAST
風向・風速南南東 13m/s
視程10km以上
なし
21日14時 SAST ~ 21日18時 SAST に一時的に
風向・風速南南東 11m/s 瞬間風速 16m/s
21日20時 SAST ~ 21日22時 SAST に徐々に
風向・風速南南東 8m/s
21日20時 SAST ~ 22日11時 SAST に一時的に
風向・風速南南東 10m/s 瞬間風速 15m/s
TAF FACT 211000Z 2112/2218 16026KT CAVOK TX25/2212Z TN15/2205Z
TEMPO 2112/2116 16022G32KT
BECMG 2118/2120 16016KT
TEMPO 2118/2209 15020G30KT